Estación Meteorológica Peña el Pijo (Robertgarden) [ 01/30/23 14:14:53 CET ]

Fecha Hora Presion(HPa) Temp (°C) Humedad % Rocio (°C) Viento ( m/s) Direccion Lluvia 1Hora(mm) Lluvia 24H(mm) LLuvia Total(mm)
2010-Sep-26 01:01:17 1006.500 9.6 83 6.8         160.58
2010-Sep-26 02:01:13 1006.300 9.0 85 6.6         160.58
2010-Sep-26 03:01:46 1005.800 8.5 87 6.5         160.58
2010-Sep-26 04:01:39 1005.400 7.6 88 5.8         160.58
2010-Sep-26 05:03:17 1005.100 7.2 89 5.5         160.58
2010-Sep-26 06:01:17 1005.000 6.6 90 5.1         160.58
2010-Sep-26 07:01:15 1005.000 6.3 90 4.8         160.58
2010-Sep-26 08:01:17 1005.000 6.1 91 4.8         160.58
2010-Sep-26 09:01:13 1005.300 6.3 91 5.0         160.58
2010-Sep-26 10:01:21 1005.200 13.5 83 10.6         160.58
2010-Sep-26 11:01:17 1005.300 18.7 61 11.0         160.58
2010-Sep-26 12:01:12 1005.600 21.5 45 9.0         160.58
2010-Sep-26 13:01:14 1005.400 23.4 37 7.8         160.58
2010-Sep-26 14:01:14 1005.100 25.4 31 7.0         160.58
2010-Sep-26 15:01:14 1005.000 25.3 29 6.0         160.58
2010-Sep-26 16:01:10 1004.800 25.8 29 6.4         160.58
2010-Sep-26 17:01:12 1004.500 25.8 30 6.9         160.58
2010-Sep-26 18:01:13 1005.100 23.4 31 5.3         160.58
2010-Sep-26 19:01:14 1005.700 19.4 36 3.8         160.58
2010-Sep-26 20:01:14 1006.300 17.5 41 4.1         160.58
2010-Sep-26 21:01:17 1007.200 14.3 52 4.6         160.58
2010-Sep-26 22:01:14 1007.700 11.3 65 4.9         160.58
2010-Sep-26 23:01:12 1008.100 10.1 68 4.5         160.58

Temperatura Máxima:25°    Temperatura Mínima:
Presión Máxima:1008.100 Hpa    Presión Mínima:1004.500 Hpa


Volver